createdAt,value
2018-08-10T00:00:15.014Z,22.80
2018-08-10T00:02:43.447Z,22.80
2018-08-10T00:05:11.860Z,22.80
2018-08-10T00:07:40.213Z,22.70
2018-08-10T00:10:10.720Z,22.70
2018-08-10T00:12:39.091Z,22.60
2018-08-10T00:15:08.941Z,22.60
2018-08-10T00:17:38.059Z,22.50
2018-08-10T00:20:08.358Z,22.40
2018-08-10T00:22:36.717Z,22.40
2018-08-10T00:25:07.188Z,22.40
2018-08-10T00:27:35.505Z,22.40
2018-08-10T00:30:05.111Z,22.40
2018-08-10T00:32:33.463Z,22.50
2018-08-10T00:35:01.843Z,22.40
2018-08-10T00:37:30.347Z,22.40
2018-08-10T00:39:59.470Z,22.40
2018-08-10T00:42:27.971Z,22.40
2018-08-10T00:44:56.399Z,22.40
2018-08-10T00:47:25.031Z,22.40
2018-08-10T00:49:53.413Z,22.40
2018-08-10T00:52:21.776Z,22.40
2018-08-10T00:54:50.134Z,22.40
2018-08-10T00:57:18.427Z,22.40
2018-08-10T00:59:46.730Z,22.40
2018-08-10T01:02:15.396Z,22.30
2018-08-10T01:04:43.779Z,22.30
2018-08-10T01:07:12.150Z,22.30
2018-08-10T01:09:40.505Z,22.30
2018-08-10T01:12:08.822Z,22.30
2018-08-10T01:14:37.226Z,22.20
2018-08-10T01:17:06.312Z,22.10
2018-08-10T01:19:34.661Z,22.10
2018-08-10T01:22:03.043Z,22.10
2018-08-10T01:24:31.323Z,22.10
2018-08-10T01:26:59.821Z,22.00
2018-08-10T01:29:28.137Z,22.00
2018-08-10T01:31:56.884Z,22.10
2018-08-10T01:34:25.187Z,22.00
2018-08-10T01:36:53.582Z,22.10
2018-08-10T01:39:21.914Z,22.00
2018-08-10T01:41:50.327Z,22.00
2018-08-10T01:44:18.687Z,22.00
2018-08-10T01:46:46.981Z,21.90
2018-08-10T01:49:15.314Z,21.90
2018-08-10T01:51:44.339Z,21.90
2018-08-10T01:54:12.720Z,21.90
2018-08-10T01:56:41.280Z,21.80
2018-08-10T01:59:09.587Z,21.80
2018-08-10T02:01:37.992Z,21.80
2018-08-10T02:04:06.427Z,21.80
2018-08-10T02:06:34.803Z,21.80
2018-08-10T02:09:03.183Z,21.70
2018-08-10T02:11:31.509Z,21.70
2018-08-10T02:13:59.897Z,21.70
2018-08-10T02:16:30.941Z,21.70
2018-08-10T02:18:59.367Z,21.70
2018-08-10T02:21:27.679Z,21.70
2018-08-10T02:23:56.021Z,21.60
2018-08-10T02:26:24.491Z,21.60
2018-08-10T02:28:52.782Z,21.60
2018-08-10T02:31:21.214Z,21.60
2018-08-10T02:33:50.027Z,21.60
2018-08-10T02:36:18.401Z,21.50
2018-08-10T02:38:47.300Z,21.50
2018-08-10T02:41:15.888Z,21.50
2018-08-10T02:43:44.250Z,21.50
2018-08-10T02:46:12.624Z,21.40
2018-08-10T02:48:40.890Z,21.40
2018-08-10T02:51:09.144Z,21.40
2018-08-10T02:53:37.514Z,21.40
2018-08-10T02:56:06.283Z,21.40
2018-08-10T02:58:34.760Z,21.50
2018-08-10T03:01:06.494Z,21.50
2018-08-10T03:03:34.871Z,21.50
2018-08-10T03:06:03.240Z,21.50
2018-08-10T03:08:31.816Z,21.50
2018-08-10T03:11:00.131Z,21.50
2018-08-10T03:13:28.596Z,21.50
2018-08-10T03:15:56.925Z,21.50
2018-08-10T03:18:25.214Z,21.60
2018-08-10T03:20:53.590Z,21.60
2018-08-10T03:23:21.862Z,21.70
2018-08-10T03:25:50.196Z,21.70
2018-08-10T03:28:18.542Z,21.80
2018-08-10T03:30:46.966Z,21.80
2018-08-10T03:33:15.272Z,21.80
2018-08-10T03:35:43.600Z,21.80
2018-08-10T03:38:11.972Z,21.80
2018-08-10T03:40:40.243Z,21.80
2018-08-10T03:43:08.576Z,21.80
2018-08-10T03:45:37.101Z,21.80
2018-08-10T03:48:05.932Z,21.80
2018-08-10T03:50:34.362Z,21.80
2018-08-10T03:53:02.645Z,21.80
2018-08-10T03:55:31.027Z,21.80
2018-08-10T03:57:59.338Z,21.80
2018-08-10T04:00:27.732Z,21.90
2018-08-10T04:02:56.107Z,21.90
2018-08-10T04:05:24.489Z,21.90
2018-08-10T04:07:52.891Z,21.90
2018-08-10T04:10:21.343Z,21.90
2018-08-10T04:12:49.621Z,21.90
2018-08-10T04:15:17.954Z,22.00
2018-08-10T04:17:46.283Z,22.00
2018-08-10T04:20:14.660Z,22.00
2018-08-10T04:22:43.011Z,22.00
2018-08-10T04:25:11.387Z,21.90
2018-08-10T04:27:39.650Z,22.00
2018-08-10T04:30:09.347Z,22.00
2018-08-10T04:32:37.723Z,22.00
2018-08-10T04:35:06.091Z,21.90
2018-08-10T04:37:34.507Z,21.90
2018-08-10T04:40:02.874Z,21.90
2018-08-10T04:42:31.243Z,21.90
2018-08-10T04:44:59.574Z,21.90
2018-08-10T04:47:27.909Z,21.90
2018-08-10T04:49:56.166Z,21.90
2018-08-10T04:52:24.494Z,21.90
2018-08-10T04:54:52.830Z,21.90
2018-08-10T04:57:21.248Z,21.90
2018-08-10T04:59:49.613Z,21.90
2018-08-10T05:02:17.975Z,21.80
2018-08-10T05:04:46.282Z,21.80
2018-08-10T05:07:14.558Z,21.90
2018-08-10T05:09:42.965Z,21.90
2018-08-10T05:12:11.300Z,21.90
2018-08-10T05:14:39.634Z,21.90
2018-08-10T05:17:07.907Z,21.90
2018-08-10T05:19:36.848Z,21.90
2018-08-10T05:22:05.248Z,21.90
2018-08-10T05:24:33.637Z,21.80
2018-08-10T05:27:02.027Z,21.80
2018-08-10T05:29:30.314Z,21.80
2018-08-10T05:31:58.730Z,21.80
2018-08-10T05:34:27.125Z,21.70
2018-08-10T05:36:55.734Z,21.80
2018-08-10T05:39:24.039Z,21.80
2018-08-10T05:41:53.337Z,21.70
2018-08-10T05:44:21.742Z,21.50
2018-08-10T05:46:53.429Z,21.60
2018-08-10T05:49:21.742Z,21.50
2018-08-10T05:51:52.406Z,21.50
2018-08-10T05:54:20.732Z,21.60
2018-08-10T05:56:49.065Z,21.60
2018-08-10T05:59:17.357Z,21.60
2018-08-10T06:01:45.752Z,21.50
2018-08-10T06:04:14.127Z,21.40
2018-08-10T06:06:42.481Z,21.30
2018-08-10T06:09:43.376Z,21.20
2018-08-10T06:14:39.776Z,21.10
2018-08-10T06:17:08.225Z,21.00
2018-08-10T06:19:36.628Z,20.90
2018-08-10T06:22:04.984Z,20.80
2018-08-10T06:24:34.260Z,20.60
2018-08-10T06:27:02.714Z,20.70
2018-08-10T06:29:31.086Z,20.60
2018-08-10T06:31:59.545Z,20.60
2018-08-10T06:34:27.929Z,20.50
2018-08-10T06:36:56.300Z,20.50
2018-08-10T06:39:24.595Z,20.50
2018-08-10T06:41:52.868Z,20.40
2018-08-10T06:44:21.276Z,20.40
2018-08-10T06:46:49.660Z,20.40
2018-08-10T06:49:17.999Z,20.40
2018-08-10T06:51:46.336Z,20.40
2018-08-10T06:54:14.691Z,20.30
2018-08-10T06:56:43.174Z,20.30
2018-08-10T06:59:11.707Z,20.30
2018-08-10T07:01:40.030Z,20.40
2018-08-10T07:04:08.346Z,20.30
2018-08-10T07:06:36.660Z,20.30
2018-08-10T07:09:08.055Z,20.30
2018-08-10T07:11:36.535Z,20.20
2018-08-10T07:14:04.946Z,20.30
2018-08-10T07:16:33.385Z,20.20
2018-08-10T07:19:01.777Z,20.30
2018-08-10T07:21:30.184Z,20.30
2018-08-10T07:23:58.574Z,20.30
2018-08-10T07:26:26.981Z,20.30
2018-08-10T07:28:55.470Z,20.40
2018-08-10T07:31:23.847Z,20.40
2018-08-10T07:33:52.267Z,20.40
2018-08-10T07:36:20.683Z,20.50
2018-08-10T07:38:49.054Z,20.50
2018-08-10T07:41:17.521Z,20.50
2018-08-10T07:43:46.071Z,20.50
2018-08-10T07:46:14.439Z,20.50
2018-08-10T07:48:47.291Z,20.50
2018-08-10T07:51:16.880Z,20.40
2018-08-10T07:53:45.728Z,20.40
2018-08-10T07:56:14.412Z,20.30
2018-08-10T07:58:42.868Z,20.20
2018-08-10T08:01:11.377Z,20.20
2018-08-10T08:03:39.941Z,20.20
2018-08-10T08:06:08.431Z,20.30
2018-08-10T08:08:36.917Z,20.30
2018-08-10T08:11:05.459Z,20.30
2018-08-10T08:13:33.824Z,20.40
2018-08-10T08:16:02.238Z,20.40
2018-08-10T08:18:30.562Z,20.40
2018-08-10T08:21:05.453Z,20.50
2018-08-10T08:23:34.037Z,20.70
2018-08-10T08:26:03.206Z,20.80
2018-08-10T08:28:32.032Z,20.80
2018-08-10T08:31:01.577Z,20.80
2018-08-10T08:33:30.030Z,20.90
2018-08-10T08:35:59.361Z,21.20
2018-08-10T08:38:39.585Z,21.30
2018-08-10T08:41:09.229Z,21.20
2018-08-10T08:46:08.231Z,21.20
2018-08-10T08:48:39.115Z,21.10
2018-08-10T08:51:09.811Z,21.20
2018-08-10T08:53:38.336Z,21.00
2018-08-10T08:56:09.529Z,20.90
2018-08-10T08:58:38.571Z,21.00
2018-08-10T09:01:07.815Z,21.20
2018-08-10T09:03:47.799Z,21.50
2018-08-10T09:06:16.152Z,21.50
2018-08-10T09:08:55.383Z,21.30
2018-08-10T09:11:23.721Z,21.20
2018-08-10T09:14:57.135Z,21.00
2018-08-10T09:17:25.604Z,20.80
2018-08-10T09:19:53.913Z,20.90
2018-08-10T09:22:22.313Z,21.00
2018-08-10T09:24:50.714Z,21.20
2018-08-10T09:27:19.022Z,21.30
2018-08-10T09:29:47.410Z,21.20
2018-08-10T09:32:15.902Z,21.30
2018-08-10T09:34:44.269Z,21.40
2018-08-10T09:37:12.595Z,21.30
2018-08-10T09:39:40.911Z,21.40
2018-08-10T09:42:09.386Z,21.60
2018-08-10T09:44:37.844Z,21.60
2018-08-10T09:47:06.954Z,21.70
2018-08-10T09:49:39.148Z,22.00
2018-08-10T09:52:07.620Z,22.00
2018-08-10T09:55:14.146Z,22.20
2018-08-10T09:57:42.510Z,22.30
2018-08-10T10:00:15.192Z,22.40
2018-08-10T10:02:53.383Z,22.30
2018-08-10T10:05:23.186Z,22.40
2018-08-10T10:07:51.527Z,22.50
2018-08-10T10:10:20.192Z,22.30
2018-08-10T10:12:48.652Z,22.10
2018-08-10T10:15:17.203Z,22.20
2018-08-10T10:17:45.529Z,22.40
2018-08-10T10:20:13.997Z,22.60
2018-08-10T10:22:42.462Z,22.90
2018-08-10T10:25:11.114Z,22.90
2018-08-10T10:27:39.403Z,23.00
2018-08-10T10:30:08.255Z,22.60
2018-08-10T10:32:36.767Z,22.50
2018-08-10T10:35:05.961Z,22.80
2018-08-10T10:37:34.543Z,22.90
2018-08-10T10:40:02.882Z,23.10
2018-08-10T10:42:31.351Z,23.10
2018-08-10T10:44:59.698Z,22.70
2018-08-10T10:47:28.104Z,22.70
2018-08-10T10:49:56.510Z,22.50
2018-08-10T10:52:24.916Z,22.50
2018-08-10T10:54:53.263Z,22.50
2018-08-10T10:57:21.609Z,22.50
2018-08-10T10:59:50.011Z,22.60
2018-08-10T11:02:18.366Z,22.80
2018-08-10T11:04:46.764Z,23.10
2018-08-10T11:07:15.083Z,23.20
2018-08-10T11:09:43.420Z,23.20
2018-08-10T11:12:11.734Z,23.30
2018-08-10T11:14:40.163Z,23.50
2018-08-10T11:17:08.734Z,23.30
2018-08-10T11:19:37.098Z,23.20
2018-08-10T11:22:05.611Z,23.10
2018-08-10T11:24:34.158Z,22.90
2018-08-10T11:27:02.570Z,22.60
2018-08-10T11:29:30.996Z,22.50
2018-08-10T11:31:59.389Z,22.70
2018-08-10T11:34:27.757Z,22.90
2018-08-10T11:36:56.066Z,23.20
2018-08-10T11:39:24.459Z,23.00
2018-08-10T11:41:52.812Z,22.70
2018-08-10T11:44:21.306Z,22.80
2018-08-10T11:46:49.774Z,22.90
2018-08-10T11:49:18.091Z,22.90
2018-08-10T11:51:46.509Z,22.90
2018-08-10T11:54:14.856Z,22.90
2018-08-10T11:56:43.295Z,23.20
2018-08-10T11:59:11.831Z,23.50
2018-08-10T12:01:40.296Z,23.80
2018-08-10T12:04:08.643Z,23.70
2018-08-10T12:06:36.995Z,23.50
2018-08-10T12:09:08.338Z,23.60
2018-08-10T12:11:37.186Z,23.80
2018-08-10T12:14:05.564Z,24.00
2018-08-10T12:16:33.951Z,24.00
2018-08-10T12:19:02.373Z,24.00
2018-08-10T12:21:31.299Z,24.10
2018-08-10T12:23:59.658Z,24.00
2018-08-10T12:26:28.141Z,24.30
2018-08-10T12:28:56.452Z,24.70
2018-08-10T12:31:24.879Z,25.30
2018-08-10T12:33:53.293Z,25.90
2018-08-10T12:36:21.659Z,26.40
2018-08-10T12:38:49.978Z,26.80
2018-08-10T12:41:18.341Z,26.30
2018-08-10T12:43:46.690Z,25.70
2018-08-10T12:46:15.085Z,24.90
2018-08-10T12:48:43.393Z,24.30
2018-08-10T12:51:11.729Z,24.40
2018-08-10T12:53:40.040Z,25.20
2018-08-10T12:56:08.389Z,26.20
2018-08-10T12:58:36.803Z,26.90
2018-08-10T13:01:05.147Z,26.50
2018-08-10T13:03:33.483Z,25.40
2018-08-10T13:06:01.782Z,25.30
2018-08-10T13:08:30.102Z,25.40
2018-08-10T13:10:58.407Z,25.40
2018-08-10T13:13:27.017Z,26.30
2018-08-10T13:15:55.472Z,27.00
2018-08-10T13:18:23.902Z,27.30
2018-08-10T13:20:52.242Z,28.50
2018-08-10T13:23:20.792Z,29.70
2018-08-10T13:25:49.210Z,31.00
2018-08-10T13:28:17.760Z,31.40
2018-08-10T13:30:46.289Z,30.60
2018-08-10T13:33:14.730Z,31.40
2018-08-10T13:35:43.267Z,30.60
2018-08-10T13:38:11.829Z,30.20
2018-08-10T13:40:40.357Z,32.20
2018-08-10T13:43:08.785Z,32.50
2018-08-10T13:45:37.143Z,33.50
2018-08-10T13:48:05.460Z,34.60
2018-08-10T13:50:33.791Z,32.90
2018-08-10T13:53:02.181Z,30.90
2018-08-10T13:55:30.578Z,30.30
2018-08-10T13:57:59.010Z,30.00
2018-08-10T14:00:27.360Z,30.10
2018-08-10T14:02:56.088Z,29.20
2018-08-10T14:05:25.127Z,29.50
2018-08-10T14:07:54.052Z,30.30
2018-08-10T14:10:22.795Z,32.00
2018-08-10T14:12:51.271Z,32.50
2018-08-10T14:15:19.822Z,32.70
2018-08-10T14:17:48.286Z,33.00
2018-08-10T14:20:16.683Z,32.70
2018-08-10T14:22:45.027Z,31.10
2018-08-10T14:25:13.415Z,29.50
2018-08-10T14:27:41.807Z,28.50
2018-08-10T14:30:13.544Z,27.60
2018-08-10T14:32:41.896Z,27.30
2018-08-10T14:35:10.426Z,27.90
2018-08-10T14:37:39.050Z,29.20
2018-08-10T14:40:09.472Z,30.90
2018-08-10T14:42:38.144Z,32.30
2018-08-10T14:45:09.371Z,34.20
2018-08-10T14:47:37.984Z,32.70
2018-08-10T14:50:08.395Z,30.40
2018-08-10T14:52:36.906Z,30.30
2018-08-10T14:55:06.138Z,29.60
2018-08-10T14:57:34.594Z,28.90
2018-08-10T15:00:03.086Z,29.40
2018-08-10T15:02:31.519Z,31.20
2018-08-10T15:05:00.953Z,30.90
2018-08-10T15:07:29.393Z,32.40
2018-08-10T15:09:58.076Z,33.70
2018-08-10T15:12:26.712Z,34.30
2018-08-10T15:14:55.127Z,34.40
2018-08-10T15:17:24.182Z,34.60
2018-08-10T15:19:52.615Z,33.70
2018-08-10T15:22:20.891Z,31.30
2018-08-10T15:24:50.082Z,29.60
2018-08-10T15:27:18.441Z,31.00
2018-08-10T15:29:46.906Z,31.80
2018-08-10T15:32:15.176Z,32.20
2018-08-10T15:34:43.584Z,33.70
2018-08-10T15:37:11.993Z,33.20
2018-08-10T15:39:40.401Z,31.60
2018-08-10T15:42:09.133Z,31.50
2018-08-10T15:44:37.575Z,31.70
2018-08-10T15:47:05.961Z,30.80
2018-08-10T15:49:34.512Z,30.30
2018-08-10T15:52:02.942Z,30.00
2018-08-10T15:54:31.315Z,31.30
2018-08-10T15:56:59.716Z,32.10
2018-08-10T15:59:28.125Z,33.00
2018-08-10T16:01:56.505Z,34.20
2018-08-10T16:04:24.972Z,34.80
2018-08-10T16:06:53.266Z,34.20
2018-08-10T16:09:21.822Z,32.00
2018-08-10T16:11:53.491Z,29.80
2018-08-10T16:14:22.003Z,30.50
2018-08-10T16:16:50.307Z,32.60
2018-08-10T16:19:18.746Z,32.10
2018-08-10T16:21:47.069Z,31.10
2018-08-10T16:24:17.833Z,29.60
2018-08-10T16:26:46.400Z,28.30
2018-08-10T16:31:43.276Z,27.60
2018-08-10T16:34:11.794Z,26.40
2018-08-10T16:36:40.276Z,26.20
2018-08-10T16:41:37.920Z,26.10
2018-08-10T16:44:06.379Z,25.70
2018-08-10T16:46:34.848Z,25.40
2018-08-10T16:49:03.166Z,25.30
2018-08-10T16:51:31.489Z,25.20
2018-08-10T16:53:59.928Z,25.00
2018-08-10T16:56:28.436Z,25.00
2018-08-10T16:58:57.100Z,24.90
2018-08-10T17:01:25.878Z,24.90
2018-08-10T17:03:54.316Z,24.80
2018-08-10T17:06:22.995Z,24.60
2018-08-10T17:08:51.715Z,24.60
2018-08-10T17:11:20.228Z,24.50
2018-08-10T17:13:49.363Z,24.40
2018-08-10T17:16:17.838Z,24.40
2018-08-10T17:18:46.413Z,24.30
2018-08-10T17:21:16.078Z,24.20
2018-08-10T17:23:45.349Z,24.10
2018-08-10T17:26:13.924Z,24.00
2018-08-10T17:28:42.629Z,24.00
2018-08-10T17:31:10.947Z,24.00
2018-08-10T17:33:39.282Z,24.10
2018-08-10T17:36:07.578Z,24.00
2018-08-10T17:38:35.943Z,23.90
2018-08-10T17:41:05.055Z,23.90
2018-08-10T17:43:33.443Z,23.80
2018-08-10T17:46:01.847Z,23.80
2018-08-10T17:48:31.221Z,23.80
2018-08-10T17:50:59.655Z,23.70
2018-08-10T17:53:28.039Z,23.70
2018-08-10T17:55:56.310Z,23.70
2018-08-10T17:58:24.595Z,23.60
2018-08-10T18:00:53.458Z,23.50
2018-08-10T18:03:21.805Z,23.50
2018-08-10T18:05:50.474Z,23.40
2018-08-10T18:08:18.772Z,23.30
2018-08-10T18:10:47.129Z,23.20
2018-08-10T18:13:15.987Z,23.20
2018-08-10T18:15:44.300Z,23.10
2018-08-10T18:18:12.652Z,23.00
2018-08-10T18:20:41.079Z,22.90
2018-08-10T18:23:09.541Z,22.90
2018-08-10T18:25:37.940Z,22.90
2018-08-10T18:28:06.476Z,22.80
2018-08-10T18:30:34.903Z,22.70
2018-08-10T18:33:03.482Z,22.70
2018-08-10T18:35:31.929Z,22.60
2018-08-10T18:38:00.255Z,22.60
2018-08-10T18:40:28.840Z,22.50
2018-08-10T18:42:57.302Z,22.50
2018-08-10T18:45:25.680Z,22.40
2018-08-10T18:47:54.074Z,22.40
2018-08-10T18:50:22.503Z,22.30
2018-08-10T18:52:50.895Z,22.30
2018-08-10T18:55:21.307Z,22.30
2018-08-10T18:57:50.058Z,22.30
2018-08-10T19:00:20.325Z,22.30
2018-08-10T19:02:49.500Z,22.30
2018-08-10T19:05:18.418Z,22.20
2018-08-10T19:07:47.489Z,22.20
2018-08-10T19:10:17.987Z,22.20
2018-08-10T19:12:46.336Z,22.10
2018-08-10T19:15:14.727Z,22.10
2018-08-10T19:17:43.153Z,22.00
2018-08-10T19:20:12.178Z,22.00
2018-08-10T19:22:40.535Z,22.00
2018-08-10T19:25:10.647Z,22.00
2018-08-10T19:27:40.363Z,21.90
2018-08-10T19:30:12.285Z,21.90
2018-08-10T19:32:41.013Z,21.80
2018-08-10T19:35:09.407Z,21.80
2018-08-10T19:37:38.286Z,21.80
2018-08-10T19:40:08.943Z,21.80
2018-08-10T19:42:37.310Z,21.80
2018-08-10T19:45:07.030Z,21.80
2018-08-10T19:55:06.223Z,21.70
2018-08-10T19:57:35.025Z,21.50
2018-08-10T20:00:04.540Z,21.50
2018-08-10T20:02:33.138Z,21.40
2018-08-10T20:05:01.716Z,21.30
2018-08-10T20:07:31.062Z,21.30
2018-08-10T20:09:59.520Z,21.20
2018-08-10T20:12:30.900Z,21.20
2018-08-10T20:14:59.262Z,21.20
2018-08-10T20:17:27.660Z,21.20
2018-08-10T20:19:55.976Z,21.10
2018-08-10T20:22:24.325Z,21.10
2018-08-10T20:24:52.666Z,21.10
2018-08-10T20:27:21.050Z,21.00
2018-08-10T20:29:49.420Z,21.00
2018-08-10T20:32:17.818Z,20.90
2018-08-10T20:47:07.259Z,20.90
2018-08-10T20:49:35.665Z,20.70
2018-08-10T20:52:04.246Z,20.60
2018-08-10T20:59:28.846Z,20.50
2018-08-10T21:04:25.451Z,20.50
2018-08-10T21:06:53.834Z,20.40
2018-08-10T21:09:22.230Z,20.30
2018-08-10T21:11:50.620Z,20.30
2018-08-10T21:14:18.958Z,20.30
2018-08-10T21:16:47.346Z,20.20
2018-08-10T21:19:15.823Z,20.20
2018-08-10T21:48:54.098Z,20.10
2018-08-10T21:51:22.469Z,19.80
2018-08-10T21:53:50.932Z,19.70
2018-08-10T21:56:19.322Z,19.70
2018-08-10T21:58:47.789Z,19.70
2018-08-10T22:01:16.271Z,19.70
2018-08-10T22:03:44.605Z,19.70
2018-08-10T22:06:13.046Z,19.70
2018-08-10T22:08:41.363Z,19.60
2018-08-10T22:11:09.727Z,19.60
2018-08-10T22:13:46.190Z,19.50
2018-08-10T22:16:19.893Z,19.50
2018-08-10T22:18:53.549Z,19.50
2018-08-10T22:21:22.025Z,19.50
2018-08-10T22:23:50.434Z,19.50
2018-08-10T22:26:18.883Z,19.40
2018-08-10T22:31:39.036Z,19.30
2018-08-10T22:34:13.391Z,19.30
